createdAt,value
2022-08-06T00:02:29.343Z,100193.69
2022-08-06T00:07:35.907Z,100197.91
2022-08-06T00:12:50.782Z,100193.78
2022-08-06T00:17:54.928Z,100197.75
2022-08-06T00:22:58.215Z,100203.59
2022-08-06T00:28:00.875Z,100201.34
2022-08-06T00:33:05.497Z,100207.84
2022-08-06T00:38:10.685Z,100204.50
2022-08-06T00:43:14.516Z,100203.31
2022-08-06T00:48:20.230Z,100206.44
2022-08-06T00:53:34.650Z,100196.69
2022-08-06T00:58:40.242Z,100210.69
2022-08-06T01:03:51.522Z,100215.47
2022-08-06T01:08:55.195Z,100221.34
2022-08-06T01:14:03.712Z,100214.72
2022-08-06T01:19:51.031Z,100213.50
2022-08-06T01:25:20.647Z,100212.66
2022-08-06T01:30:30.608Z,100218.53
2022-08-06T01:35:46.375Z,100223.56
2022-08-06T01:40:52.186Z,100211.34
2022-08-06T01:45:58.412Z,100225.03
2022-08-06T01:51:03.873Z,100231.97
2022-08-06T01:56:09.373Z,100236.78
2022-08-06T02:01:14.956Z,100240.75
2022-08-06T02:06:29.640Z,100248.25
2022-08-06T02:12:03.564Z,100249.53
2022-08-06T02:16:59.745Z,100247.22
2022-08-06T02:22:26.640Z,100246.00
2022-08-06T02:27:43.673Z,100253.31
2022-08-06T02:32:55.621Z,100248.56
2022-08-06T02:38:07.751Z,100258.78
2022-08-06T02:43:16.112Z,100266.50
2022-08-06T02:48:32.072Z,100269.44
2022-08-06T02:54:02.492Z,100256.75
2022-08-06T02:59:05.257Z,100257.81
2022-08-06T03:04:10.896Z,100202.22
2022-08-06T03:09:16.464Z,100267.19
2022-08-06T03:15:03.448Z,100273.03
2022-08-06T03:19:58.169Z,100284.31
2022-08-06T03:25:03.389Z,100282.25
2022-08-06T03:30:07.851Z,100289.75
2022-08-06T03:35:41.287Z,100296.22
2022-08-06T03:40:36.422Z,100288.53
2022-08-06T03:45:45.903Z,100297.69
2022-08-06T03:51:04.900Z,100297.50
2022-08-06T03:56:14.672Z,100298.75
2022-08-06T04:01:22.278Z,100301.88
2022-08-06T04:06:28.633Z,100311.28
2022-08-06T04:12:13.157Z,100318.75
2022-08-06T04:16:54.769Z,100326.50
2022-08-06T04:23:05.962Z,100325.88
2022-08-06T04:27:22.487Z,100330.44
2022-08-06T04:32:29.328Z,100328.19
2022-08-06T04:37:40.675Z,100335.66
2022-08-06T04:42:44.626Z,100335.88
2022-08-06T04:47:47.879Z,100338.81
2022-08-06T04:52:52.451Z,100339.81
2022-08-06T04:57:57.590Z,100347.34
2022-08-06T05:03:06.834Z,100349.00
2022-08-06T05:08:14.196Z,100356.44
2022-08-06T05:13:35.357Z,100358.13
2022-08-06T05:19:21.517Z,100360.75
2022-08-06T05:24:09.953Z,100360.88
2022-08-06T05:29:13.433Z,100359.53
2022-08-06T05:34:19.692Z,100364.53
2022-08-06T05:39:58.095Z,100381.97
2022-08-06T05:44:46.670Z,100383.16
2022-08-06T05:50:01.338Z,100380.19
2022-08-06T05:55:11.615Z,100377.22
2022-08-06T06:00:32.110Z,100395.31
2022-08-06T06:06:03.841Z,100385.25
2022-08-06T06:11:10.421Z,100388.97
2022-08-06T06:16:25.821Z,100393.94
2022-08-06T06:21:50.801Z,100392.84
2022-08-06T06:26:59.094Z,100399.09
2022-08-06T06:32:08.015Z,100399.47
2022-08-06T06:37:40.701Z,100411.47
2022-08-06T06:42:49.861Z,100407.22
2022-08-06T06:48:02.347Z,100413.00
2022-08-06T06:53:10.254Z,100417.56
2022-08-06T06:58:24.727Z,100418.34
2022-08-06T07:03:34.842Z,100424.59
2022-08-06T07:08:50.668Z,100426.78
2022-08-06T07:13:59.030Z,100432.81
2022-08-06T07:19:03.539Z,100435.16
2022-08-06T07:24:37.955Z,100444.94
2022-08-06T07:29:49.737Z,100450.47
2022-08-06T07:34:55.429Z,100446.31
2022-08-06T07:39:59.862Z,100449.47
2022-08-06T07:45:11.236Z,100451.94
2022-08-06T07:50:22.533Z,100462.19
2022-08-06T07:55:37.411Z,100458.72
2022-08-06T08:00:49.278Z,100459.91
2022-08-06T08:06:10.332Z,100460.16
2022-08-06T08:11:15.243Z,100458.88
2022-08-06T08:16:30.071Z,100448.91
2022-08-06T08:21:35.535Z,100457.81
2022-08-06T08:27:03.618Z,100461.94
2022-08-06T08:32:03.199Z,100453.44
2022-08-06T08:37:18.261Z,100464.47
2022-08-06T08:42:31.334Z,100458.81
2022-08-06T08:47:52.099Z,100453.78
2022-08-06T08:53:03.587Z,100457.09
2022-08-06T08:58:40.787Z,100455.88
2022-08-06T09:03:32.242Z,100464.22
2022-08-06T09:08:59.573Z,100461.31
2022-08-06T09:14:00.786Z,100470.06
2022-08-06T09:19:10.404Z,100461.47
2022-08-06T09:24:14.390Z,100462.97
2022-08-06T09:29:24.069Z,100452.09
2022-08-06T09:34:41.049Z,100466.75
2022-08-06T09:39:59.690Z,100469.00
2022-08-06T09:45:15.569Z,100466.66
2022-08-06T09:50:37.198Z,100456.63
2022-08-06T09:55:41.635Z,100463.13
2022-08-06T10:00:46.300Z,100463.91
2022-08-06T10:06:10.528Z,100474.50
2022-08-06T10:11:13.625Z,100473.53
2022-08-06T10:16:19.089Z,100472.88
2022-08-06T10:21:27.164Z,100477.06
2022-08-06T10:26:33.393Z,100473.25
2022-08-06T10:31:38.123Z,100470.31
2022-08-06T10:36:45.451Z,100469.69
2022-08-06T10:42:01.314Z,100468.88
2022-08-06T10:47:08.093Z,100469.94
2022-08-06T10:52:16.427Z,100470.16
2022-08-06T10:57:30.016Z,100471.59
2022-08-06T11:02:49.998Z,100465.94
2022-08-06T11:08:41.144Z,100461.81
2022-08-06T11:13:54.110Z,100455.31
2022-08-06T11:19:07.288Z,100443.63
2022-08-06T11:24:12.901Z,100446.34
2022-08-06T11:29:17.417Z,100453.03
2022-08-06T11:34:48.602Z,100443.63
2022-08-06T11:40:10.135Z,100436.31
2022-08-06T11:46:21.740Z,100437.13
2022-08-06T11:50:35.886Z,100426.25
2022-08-06T11:56:04.864Z,100433.59
2022-08-06T12:01:34.512Z,100435.03
2022-08-06T12:06:31.719Z,100434.03
2022-08-06T12:11:37.152Z,100436.47
2022-08-06T12:16:44.756Z,100428.97
2022-08-06T12:21:56.680Z,100427.50
2022-08-06T12:27:01.798Z,100416.41
2022-08-06T12:32:21.385Z,100413.50
2022-08-06T12:37:47.437Z,100416.00
2022-08-06T12:42:55.326Z,100418.09
2022-08-06T12:48:03.370Z,100406.41
2022-08-06T12:53:11.489Z,100408.06
2022-08-06T12:58:42.295Z,100399.09
2022-08-06T13:03:42.838Z,100388.59
2022-08-06T13:08:53.438Z,100389.28
2022-08-06T13:14:13.162Z,100384.22
2022-08-06T13:19:21.206Z,100382.56
2022-08-06T13:25:04.205Z,100383.31
2022-08-06T13:30:32.160Z,100378.41
2022-08-06T13:35:30.491Z,100371.84
2022-08-06T13:40:41.883Z,100364.97
2022-08-06T13:45:56.683Z,100368.91
2022-08-06T13:51:02.709Z,100366.56
2022-08-06T13:56:06.490Z,100364.69
2022-08-06T14:01:16.043Z,100362.19
2022-08-06T14:06:18.732Z,100359.13
2022-08-06T14:11:24.837Z,100360.78
2022-08-06T14:16:32.029Z,100351.34
2022-08-06T14:21:39.626Z,100352.31
2022-08-06T14:26:42.553Z,100347.56
2022-08-06T14:31:53.776Z,100349.44
2022-08-06T14:37:00.694Z,100339.88
2022-08-06T14:42:23.273Z,100348.53
2022-08-06T14:47:58.916Z,100344.16
2022-08-06T14:52:51.090Z,100336.03
2022-08-06T14:58:05.327Z,100333.09
2022-08-06T15:03:13.798Z,100320.94
2022-08-06T15:08:17.445Z,100322.59
2022-08-06T15:13:20.507Z,100313.00
2022-08-06T15:18:54.305Z,100305.47
2022-08-06T15:23:54.146Z,100298.00
2022-08-06T15:28:57.575Z,100301.31
2022-08-06T15:34:06.139Z,100304.03
2022-08-06T15:39:10.039Z,100303.22
2022-08-06T15:44:12.928Z,100304.66
2022-08-06T15:49:20.905Z,100300.84
2022-08-06T15:54:28.748Z,100292.34
2022-08-06T15:59:52.146Z,100290.47
2022-08-06T16:04:55.538Z,100291.28
2022-08-06T16:10:03.267Z,100288.09
2022-08-06T16:15:10.874Z,100287.28
2022-08-06T16:20:31.971Z,100297.94
2022-08-06T16:26:09.878Z,100281.84
2022-08-06T16:31:14.711Z,100285.16
2022-08-06T16:36:32.548Z,100288.50
2022-08-06T16:41:58.929Z,100283.41
2022-08-06T16:52:42.769Z,100271.13
2022-08-06T16:58:01.366Z,100273.22
2022-08-06T17:03:07.764Z,100273.84
2022-08-06T17:08:16.936Z,100269.47
2022-08-06T17:13:38.089Z,100273.22
2022-08-06T17:18:42.853Z,100272.19
2022-08-06T17:24:07.066Z,100274.06
2022-08-06T17:29:12.943Z,100268.41
2022-08-06T17:34:15.902Z,100263.56
2022-08-06T17:39:32.876Z,100271.41
2022-08-06T17:42:29.092Z,100279.88
2022-08-06T17:44:42.277Z,100276.00
2022-08-06T17:49:45.836Z,100261.59
2022-08-06T17:54:54.435Z,100263.38
2022-08-06T17:59:59.755Z,100267.13
2022-08-06T18:05:02.784Z,100266.56
2022-08-06T18:10:31.300Z,100270.09
2022-08-06T18:15:41.012Z,100267.84
2022-08-06T18:20:50.285Z,100265.34
2022-08-06T18:25:57.946Z,100280.00
2022-08-06T18:31:01.244Z,100280.22
2022-08-06T18:56:49.718Z,100284.56
2022-08-06T19:01:52.632Z,100287.50
2022-08-06T19:06:55.832Z,100293.19
2022-08-06T19:11:59.995Z,100299.91
2022-08-06T19:17:04.031Z,100304.50
2022-08-06T19:22:09.296Z,100304.72
2022-08-06T19:27:14.032Z,100316.88
2022-08-06T19:32:27.814Z,100313.78
2022-08-06T19:37:58.833Z,100316.72
2022-08-06T19:44:27.936Z,100321.53
2022-08-06T19:48:29.146Z,100322.00
2022-08-06T20:00:50.566Z,100325.59
2022-08-06T20:06:21.104Z,100322.06
2022-08-06T20:12:02.774Z,100323.94
2022-08-06T20:17:04.944Z,100337.50
2022-08-06T20:22:13.033Z,100331.72
2022-08-06T20:27:38.004Z,100340.06
2022-08-06T20:32:53.742Z,100340.97
2022-08-06T20:37:57.886Z,100336.84
2022-08-06T20:43:11.722Z,100338.72
2022-08-06T20:48:16.625Z,100340.63
2022-08-06T20:53:22.232Z,100328.31
2022-08-06T20:58:25.637Z,100326.06
2022-08-06T21:05:15.412Z,100328.16
2022-08-06T21:09:00.000Z,100347.00
2022-08-06T21:14:06.605Z,100340.16
2022-08-06T21:19:12.263Z,100336.81
2022-08-06T21:24:16.052Z,100337.28
2022-08-06T21:30:09.885Z,100332.06
2022-08-06T21:34:45.420Z,100337.94
2022-08-06T21:39:56.209Z,100343.81
2022-08-06T21:45:00.687Z,100331.31
2022-08-06T21:50:25.281Z,100334.47
2022-08-06T21:56:38.442Z,100330.09
2022-08-06T22:00:53.944Z,100316.66
2022-08-06T22:06:22.737Z,100328.50
2022-08-06T22:12:40.102Z,100321.44
2022-08-06T22:16:48.581Z,100320.00
2022-08-06T22:22:00.929Z,100324.81
2022-08-06T22:27:03.922Z,100322.97
2022-08-06T22:32:08.984Z,100321.72
2022-08-06T22:37:14.829Z,100314.06
2022-08-06T22:42:20.863Z,100309.28
2022-08-06T22:47:39.949Z,100309.13
2022-08-06T22:53:02.831Z,100310.41
2022-08-06T22:59:05.683Z,100312.94
2022-08-06T23:03:31.605Z,100308.78
2022-08-06T23:08:36.002Z,100300.28
2022-08-06T23:13:44.551Z,100302.59
2022-08-06T23:18:47.748Z,100292.19
2022-08-06T23:23:54.162Z,100293.47
2022-08-06T23:28:57.109Z,100294.72
2022-08-06T23:34:00.477Z,100288.31
2022-08-06T23:39:13.679Z,100294.19
2022-08-06T23:44:25.277Z,100299.19
2022-08-06T23:49:31.590Z,100286.31
2022-08-06T23:54:35.884Z,100289.47
2022-08-06T23:59:44.858Z,100287.81
